Time;durP1;ratioP1;P1;durP2;ratioP2;P2;SDS_P1;SDS_P2;PMS_P1;PMS_P2;Temp;Humidity;BMP_temperature;BMP_pressure;BME280_temperature;BME280_humidity;BME280_pressure;Samples;Min_cycle;Max_cycle;Signal;HPM_P1;HPM_P2
2022/10/31 00:02:18;;;;;;;16.93;6.07;;;9.50;68.90;;;;;;4978393;28;45936;-67
2022/10/31 00:04:44;;;;;;;10.43;5.40;;;9.40;68.90;;;;;;4982191;28;46536;-67
2022/10/31 00:07:09;;;;;;;13.27;5.70;;;9.40;69.10;;;;;;4964674;28;46466;-67
2022/10/31 00:09:35;;;;;;;13.10;6.20;;;9.40;68.20;;;;;;4966527;28;46338;-68
2022/10/31 00:12:01;;;;;;;24.03;6.10;;;9.40;69.20;;;;;;4981278;28;46499;-67
2022/10/31 00:14:26;;;;;;;24.13;5.93;;;9.30;69.20;;;;;;4965104;28;46546;-67
2022/10/31 00:16:52;;;;;;;11.07;5.50;;;9.30;69.40;;;;;;4974369;28;46356;-67
2022/10/31 00:19:17;;;;;;;9.03;5.60;;;9.10;68.80;;;;;;4961564;28;47926;-67
2022/10/31 00:21:43;;;;;;;18.23;7.60;;;9.10;69.80;;;;;;4982172;28;45937;-67
2022/10/31 00:24:10;;;;;;;19.43;6.40;;;9.10;69.80;;;;;;4981776;28;46384;-67
2022/10/31 00:26:35;;;;;;;12.30;5.40;;;9.10;69.70;;;;;;4966295;28;46059;-67
2022/10/31 00:29:01;;;;;;;15.87;6.27;;;9.10;69.70;;;;;;4983028;28;46783;-67
2022/10/31 00:31:27;;;;;;;30.67;6.90;;;9.10;68.70;;;;;;4981459;28;46426;-67
2022/10/31 00:33:53;;;;;;;14.27;6.03;;;9.10;69.60;;;;;;4966613;28;46473;-66
2022/10/31 00:36:20;;;;;;;14.37;5.63;;;9.10;69.50;;;;;;4966589;28;46460;-67
2022/10/31 00:38:47;;;;;;;26.23;6.70;;;9.10;69.40;;;;;;4982653;28;46510;-66
2022/10/31 00:41:14;;;;;;;20.70;6.87;;;9.10;68.30;;;;;;4965375;28;46687;-66
2022/10/31 00:43:44;;;;;;;14.20;6.97;;;9.20;69.40;;;;;;4963580;28;46544;-67
2022/10/31 00:46:11;;;;;;;17.60;7.00;;;9.20;69.20;;;;;;4982262;28;46465;-67
2022/10/31 00:48:36;;;;;;;21.83;7.10;;;9.30;69.20;;;;;;4965318;28;46709;-67
2022/10/31 00:51:02;;;;;;;15.20;7.60;;;9.30;69.10;;;;;;4967310;28;47085;-67
2022/10/31 00:53:28;;;;;;;24.20;7.90;;;9.30;69.00;;;;;;4982063;28;46404;-67
2022/10/31 00:55:53;;;;;;;17.93;8.13;;;9.40;69.10;;;;;;4965611;28;46535;-67
2022/10/31 00:58:19;;;;;;;15.80;7.13;;;9.40;68.90;;;;;;4983174;28;48031;-67
2022/10/31 01:00:54;;;;;;;14.90;7.67;;;9.50;69.00;;;;;;4981815;28;46347;-67
2022/10/31 01:03:24;;;;;;;11.43;7.13;;;9.50;68.90;;;;;;4979529;28;46468;-66
2022/10/31 01:05:57;;;;;;;17.67;7.07;;;9.50;68.90;;;;;;4983245;28;46435;-66
2022/10/31 01:08:22;;;;;;;18.07;6.80;;;9.50;68.90;;;;;;4980681;28;49065;-66
2022/10/31 01:10:58;;;;;;;19.27;6.37;;;9.40;68.20;;;;;;4978762;28;46479;-66
2022/10/31 01:13:24;;;;;;;17.73;7.13;;;9.40;69.30;;;;;;4981040;28;46359;-66
2022/10/31 01:16:00;;;;;;;17.47;6.20;;;9.40;69.30;;;;;;4981024;28;46464;-66
2022/10/31 01:18:26;;;;;;;15.17;6.57;;;9.40;69.40;;;;;;4963445;28;46602;-67
2022/10/31 01:21:07;;;;;;;14.47;7.17;;;9.40;69.30;;;;;;4982861;28;45811;-67
2022/10/31 01:23:33;;;;;;;15.97;7.83;;;9.40;69.30;;;;;;4963409;28;46437;-66
2022/10/31 01:26:23;;;;;;;14.97;6.43;;;9.40;69.20;;;;;;4983285;28;46521;-66
2022/10/31 01:28:54;;;;;;;11.70;5.80;;;9.40;69.40;;;;;;4970893;28;48952;-66
2022/10/31 01:31:21;;;;;;;17.60;6.50;;;9.30;68.50;;;;;;4964800;28;45897;-66
2022/10/31 01:33:47;;;;;;;12.13;5.10;;;9.20;69.70;;;;;;4967539;28;46315;-67
2022/10/31 01:36:23;;;;;;;15.87;5.67;;;9.10;70.00;;;;;;4964818;28;46450;-67
2022/10/31 01:38:50;;;;;;;13.67;5.07;;;9.10;70.00;;;;;;4979918;28;47753;-66
2022/10/31 01:41:23;;;;;;;15.80;6.00;;;9.00;69.00;;;;;;4979905;28;46667;-66
2022/10/31 01:43:55;;;;;;;12.07;5.70;;;9.00;70.00;;;;;;4984051;28;46156;-66
2022/10/31 01:46:32;;;;;;;12.70;7.13;;;9.10;69.90;;;;;;4962618;28;46429;-66
2022/10/31 01:49:01;;;;;;;18.80;6.70;;;9.10;69.60;;;;;;4958108;28;46936;-66
2022/10/31 01:51:33;;;;;;;12.43;6.17;;;9.20;68.70;;;;;;4980714;28;46554;-67
2022/10/31 01:54:03;;;;;;;14.77;6.83;;;9.20;69.60;;;;;;4958311;28;46292;-67
2022/10/31 01:56:29;;;;;;;20.20;5.70;;;9.20;69.60;;;;;;4984008;28;46601;-66
2022/10/31 01:58:57;;;;;;;17.77;5.40;;;9.10;69.70;;;;;;4967179;28;46396;-66
2022/10/31 02:01:23;;;;;;;17.30;5.67;;;9.10;68.80;;;;;;4972405;28;46307;-67
2022/10/31 02:03:49;;;;;;;13.77;5.13;;;9.00;69.90;;;;;;4981706;28;46487;-66
2022/10/31 02:06:41;;;;;;;10.00;4.73;;;8.90;70.00;;;;;;4960048;28;46678;-66
2022/10/31 02:09:07;;;;;;;8.07;4.53;;;8.80;70.20;;;;;;4964108;28;46467;-66
2022/10/31 02:11:35;;;;;;;8.83;4.77;;;8.70;69.30;;;;;;4980778;28;46380;-67
2022/10/31 02:14:02;;;;;;;13.23;5.33;;;8.60;70.50;;;;;;4982534;28;46311;-66
2022/10/31 02:16:28;;;;;;;11.27;4.73;;;8.60;70.70;;;;;;4965596;28;46345;-66
2022/10/31 02:18:55;;;;;;;23.17;5.90;;;8.60;70.80;;;;;;4979964;28;48295;-66
2022/10/31 02:21:53;;;;;;;10.80;5.30;;;8.60;69.70;;;;;;4963644;28;46530;-67
2022/10/31 02:24:52;;;;;;;17.50;5.97;;;8.50;70.70;;;;;;4965375;28;46370;-66
2022/10/31 02:27:36;;;;;;;26.50;6.50;;;8.60;70.50;;;;;;4965699;28;46363;-67
2022/10/31 02:30:23;;;;;;;23.00;5.77;;;8.60;69.20;;;;;;4963891;28;46314;-67
2022/10/31 02:33:10;;;;;;;22.77;5.83;;;8.60;70.10;;;;;;4964170;28;46415;-68
2022/10/31 02:35:42;;;;;;;15.00;6.23;;;8.60;70.10;;;;;;4965380;28;46639;-67
2022/10/31 02:38:37;;;;;;;15.13;5.80;;;8.60;70.00;;;;;;4964939;28;46615;-68
2022/10/31 02:41:31;;;;;;;15.30;6.60;;;8.70;68.90;;;;;;4965708;28;47874;-67
2022/10/31 02:44:08;;;;;;;12.80;6.40;;;8.70;69.90;;;;;;4979682;28;46498;-67
2022/10/31 02:46:37;;;;;;;18.30;5.40;;;8.70;69.80;;;;;;4963286;28;45802;-69
2022/10/31 02:49:14;;;;;;;14.40;5.50;;;8.80;69.80;;;;;;4965896;28;46607;-67
2022/10/31 02:51:40;;;;;;;11.20;4.87;;;8.70;68.60;;;;;;4980897;28;46329;-68
2022/10/31 02:54:21;;;;;;;8.40;4.63;;;8.70;69.90;;;;;;4980595;28;46421;-67
2022/10/31 02:56:48;;;;;;;17.67;5.17;;;8.60;70.10;;;;;;4963638;28;46556;-68
2022/10/31 02:59:15;;;;;;;9.00;4.90;;;8.40;69.40;;;;;;4979702;28;46405;-67
2022/10/31 03:02:01;;;;;;;12.40;4.67;;;8.40;70.50;;;;;;4979081;28;48174;-68
2022/10/31 03:05:05;;;;;;;9.90;4.47;;;8.40;70.50;;;;;;4963351;28;46387;-68
2022/10/31 03:07:30;;;;;;;10.40;4.80;;;8.30;70.50;;;;;;4962963;28;46407;-68
2022/10/31 03:10:16;;;;;;;9.63;5.70;;;8.30;69.30;;;;;;4963531;28;46407;-68
2022/10/31 03:12:44;;;;;;;12.13;5.03;;;8.30;70.40;;;;;;4963326;28;47987;-68
2022/10/31 03:15:25;;;;;;;10.37;5.30;;;8.30;70.30;;;;;;4963711;28;46441;-67
2022/10/31 03:18:00;;;;;;;15.70;5.23;;;8.30;70.30;;;;;;4978641;28;46395;-68
2022/10/31 03:20:40;;;;;;;13.27;5.30;;;8.30;69.00;;;;;;4957797;28;46616;-67
2022/10/31 03:23:11;;;;;;;12.57;6.60;;;8.30;70.00;;;;;;4967320;28;48274;-68
2022/10/31 03:25:39;;;;;;;18.50;6.23;;;8.30;70.00;;;;;;4963705;28;46508;-66
2022/10/31 03:28:07;;;;;;;14.83;5.30;;;8.40;70.00;;;;;;4963479;28;46444;-67
2022/10/31 03:30:37;;;;;;;10.83;5.10;;;8.40;68.80;;;;;;4977642;28;46681;-68
2022/10/31 03:33:06;;;;;;;8.50;5.40;;;8.40;69.90;;;;;;4978817;28;47954;-67
2022/10/31 03:35:34;;;;;;;14.03;5.70;;;8.30;69.80;;;;;;4962756;28;46589;-67
2022/10/31 03:38:01;;;;;;;14.63;4.80;;;8.30;70.00;;;;;;4964080;28;46345;-67
2022/10/31 03:40:28;;;;;;;10.10;5.17;;;8.20;69.20;;;;;;4961226;28;46370;-70
2022/10/31 03:42:59;;;;;;;10.90;5.40;;;8.20;70.40;;;;;;4984949;28;47942;-67
2022/10/31 03:45:28;;;;;;;9.17;4.60;;;8.20;70.30;;;;;;4985561;28;46564;-69
2022/10/31 03:47:55;;;;;;;14.50;5.17;;;8.10;70.30;;;;;;4986600;28;45802;-67
2022/10/31 03:50:23;;;;;;;11.57;5.30;;;8.10;69.50;;;;;;4972564;28;46449;-68
2022/10/31 03:53:02;;;;;;;11.27;4.40;;;8.10;70.50;;;;;;4971114;28;49081;-67
2022/10/31 03:55:41;;;;;;;13.33;5.00;;;8.10;70.40;;;;;;4971657;28;46518;-68
2022/10/31 03:58:11;;;;;;;13.10;5.57;;;8.00;70.40;;;;;;4986477;28;46366;-67
2022/10/31 04:00:42;;;;;;;14.53;5.63;;;8.00;69.30;;;;;;4983878;28;46519;-69
2022/10/31 04:03:15;;;;;;;14.87;5.27;;;8.00;70.30;;;;;;4984658;28;46288;-67
2022/10/31 04:05:45;;;;;;;14.00;5.60;;;8.00;70.40;;;;;;4961063;28;46429;-67
2022/10/31 04:08:16;;;;;;;12.50;4.97;;;8.00;70.30;;;;;;4966739;28;46520;-68
2022/10/31 04:10:44;;;;;;;10.33;5.37;;;8.00;69.30;;;;;;4984690;28;46572;-68
2022/10/31 04:13:14;;;;;;;11.17;5.23;;;8.00;70.20;;;;;;4966610;28;47964;-67
2022/10/31 04:15:43;;;;;;;13.27;5.90;;;8.00;70.20;;;;;;4982381;28;46464;-67
2022/10/31 04:18:09;;;;;;;16.27;5.10;;;8.00;70.00;;;;;;4967107;28;46433;-67
2022/10/31 04:20:40;;;;;;;16.83;6.03;;;8.10;69.10;;;;;;4981889;28;46373;-66
2022/10/31 04:23:33;;;;;;;9.70;4.77;;;8.00;70.00;;;;;;4964069;28;46506;-70
2022/10/31 04:25:59;;;;;;;9.17;5.03;;;8.00;70.00;;;;;;4964342;28;46473;-67
2022/10/31 04:28:24;;;;;;;8.70;4.30;;;8.00;70.00;;;;;;4965899;28;46520;-66
2022/10/31 04:30:50;;;;;;;14.20;4.20;;;8.00;69.10;;;;;;4981024;28;46583;-69
2022/10/31 04:33:17;;;;;;;8.30;5.00;;;8.00;70.20;;;;;;4983642;28;47648;-67
2022/10/31 04:35:43;;;;;;;9.00;4.23;;;7.90;70.20;;;;;;4982063;28;46644;-66
2022/10/31 04:38:09;;;;;;;12.67;4.10;;;7.90;70.30;;;;;;4982234;28;46215;-68
2022/10/31 04:40:34;;;;;;;8.13;3.93;;;7.80;69.30;;;;;;4980845;28;46847;-67
2022/10/31 04:43:00;;;;;;;9.90;5.13;;;7.80;70.40;;;;;;4965436;28;49041;-67
2022/10/31 04:45:26;;;;;;;7.17;3.93;;;7.80;70.20;;;;;;4981578;28;46409;-68
2022/10/31 04:47:51;;;;;;;9.00;3.93;;;7.80;70.20;;;;;;4983531;28;46400;-67
2022/10/31 04:50:17;;;;;;;9.53;4.20;;;7.80;69.10;;;;;;4980543;28;46473;-66
2022/10/31 04:52:45;;;;;;;15.97;3.23;;;7.80;70.10;;;;;;4964996;28;47960;-67
2022/10/31 04:55:12;;;;;;;8.30;3.23;;;7.80;70.10;;;;;;4958900;28;46534;-69
2022/10/31 04:57:42;;;;;;;6.73;4.10;;;7.60;70.10;;;;;;4979308;28;46421;-66
2022/10/31 05:00:09;;;;;;;7.03;3.43;;;7.60;69.30;;;;;;4968013;28;46449;-67
2022/10/31 05:02:34;;;;;;;10.73;4.50;;;7.60;70.40;;;;;;4980678;28;48864;-69
2022/10/31 05:05:00;;;;;;;11.33;3.60;;;7.60;70.30;;;;;;4966821;28;46599;-67
2022/10/31 05:07:25;;;;;;;8.73;4.13;;;7.60;70.20;;;;;;4964327;28;46532;-68
2022/10/31 05:09:51;;;;;;;7.33;3.20;;;7.60;70.20;;;;;;4961520;28;46314;-68
2022/10/31 05:12:17;;;;;;;14.23;4.03;;;7.60;70.30;;;;;;4964948;28;47735;-67
2022/10/31 05:14:42;;;;;;;15.33;4.37;;;7.50;70.20;;;;;;4981736;28;46352;-68
2022/10/31 05:17:08;;;;;;;9.30;3.87;;;7.50;70.30;;;;;;4979270;28;46278;-67
2022/10/31 05:19:34;;;;;;;8.53;3.90;;;7.50;69.30;;;;;;4982430;28;46593;-67
2022/10/31 05:21:59;;;;;;;8.73;4.50;;;7.50;70.20;;;;;;4963936;28;48647;-68
2022/10/31 05:24:25;;;;;;;8.90;3.83;;;7.40;70.20;;;;;;4966911;28;46540;-68
2022/10/31 05:26:50;;;;;;;8.93;3.80;;;7.40;70.20;;;;;;4964296;28;46462;-68
2022/10/31 05:29:16;;;;;;;11.30;5.87;;;7.40;69.40;;;;;;4963662;28;46610;-68
2022/10/31 05:31:42;;;;;;;557.83;310.23;;;7.40;70.50;;;;;;4964768;28;46325;-68
2022/10/31 05:34:07;;;;;;;42.67;17.43;;;7.60;70.40;;;;;;4982291;28;46467;-68
2022/10/31 05:36:33;;;;;;;24.17;10.83;;;7.80;70.30;;;;;;4965770;28;46507;-68
2022/10/31 05:38:59;;;;;;;16.63;9.30;;;7.70;70.40;;;;;;4981040;28;46628;-67
2022/10/31 05:41:24;;;;;;;17.27;8.47;;;7.70;69.80;;;;;;4982834;28;47332;-68
2022/10/31 05:43:50;;;;;;;11.50;5.43;;;7.60;71.10;;;;;;4964202;28;46570;-68
2022/10/31 05:46:16;;;;;;;16.73;5.50;;;7.60;71.10;;;;;;4963565;28;45820;-70
2022/10/31 05:48:41;;;;;;;24.93;8.13;;;7.60;71.10;;;;;;4964355;28;46436;-69
2022/10/31 05:51:07;;;;;;;12.27;6.07;;;7.50;70.00;;;;;;4981400;28;48022;-67
2022/10/31 05:53:32;;;;;;;17.90;5.27;;;7.50;71.10;;;;;;4980422;28;46448;-68
2022/10/31 05:55:58;;;;;;;9.93;5.50;;;7.50;71.10;;;;;;4980015;28;46241;-67
2022/10/31 05:58:24;;;;;;;10.27;5.00;;;7.50;71.10;;;;;;4980219;28;46307;-67
2022/10/31 06:00:50;;;;;;;14.80;5.67;;;7.40;70.20;;;;;;4965297;28;48091;-67
2022/10/31 06:03:15;;;;;;;12.20;4.60;;;7.50;71.20;;;;;;4960797;28;46392;-68
2022/10/31 06:05:41;;;;;;;21.90;6.90;;;7.50;71.10;;;;;;4979434;28;45985;-67
2022/10/31 06:08:06;;;;;;;23.77;6.83;;;7.50;71.10;;;;;;4980969;28;46405;-68
2022/10/31 06:10:32;;;;;;;14.77;5.43;;;7.60;70.10;;;;;;4980586;28;46726;-68
2022/10/31 06:12:58;;;;;;;11.33;5.90;;;7.60;71.10;;;;;;4976827;28;46589;-68
2022/10/31 06:15:23;;;;;;;8.70;5.20;;;7.60;71.10;;;;;;4978173;28;46468;-69
2022/10/31 06:17:58;;;;;;;10.83;6.07;;;7.70;71.10;;;;;;4965404;28;46037;-69
2022/10/31 06:20:24;;;;;;;15.83;4.87;;;7.70;70.00;;;;;;4961513;28;47143;-67
2022/10/31 06:22:50;;;;;;;14.90;6.33;;;7.70;69.90;;;;;;4979060;28;46467;-68
2022/10/31 06:25:16;;;;;;;10.33;5.70;;;7.80;70.90;;;;;;4984047;28;46349;-67
2022/10/31 06:27:41;;;;;;;11.10;5.80;;;7.80;70.90;;;;;;4980290;28;46462;-68
2022/10/31 06:30:08;;;;;;;10.43;5.20;;;7.90;69.90;;;;;;4965897;28;46455;-68
2022/10/31 06:32:33;;;;;;;18.03;4.67;;;8.00;70.80;;;;;;4963841;28;46685;-67
2022/10/31 06:34:59;;;;;;;11.53;5.43;;;8.00;70.80;;;;;;4966363;28;46337;-68
2022/10/31 06:37:25;;;;;;;16.70;5.40;;;8.10;70.70;;;;;;4978989;28;46572;-67
2022/10/31 06:39:50;;;;;;;17.47;4.77;;;8.20;70.70;;;;;;4980475;28;46695;-68
2022/10/31 06:42:16;;;;;;;12.90;5.53;;;8.30;70.60;;;;;;4980691;28;46710;-68
2022/10/31 06:44:42;;;;;;;14.80;4.90;;;8.30;70.50;;;;;;4980596;28;46667;-68
2022/10/31 06:47:07;;;;;;;12.37;4.20;;;8.40;70.30;;;;;;4964913;28;46657;-66
2022/10/31 06:49:33;;;;;;;7.30;3.90;;;8.60;69.20;;;;;;4963221;28;48013;-67
2022/10/31 06:51:59;;;;;;;10.80;4.73;;;8.60;70.20;;;;;;4959156;28;46559;-68
2022/10/31 06:54:25;;;;;;;12.00;5.25;;;8.70;70.10;;;;;;4978807;28;46465;-68
2022/10/31 06:56:51;;;;;;;14.90;4.57;;;8.70;70.20;;;;;;4963619;28;46389;-68
2022/10/31 06:59:17;;;;;;;9.65;4.55;;;8.80;70.20;;;;;;4978323;28;46561;-67
2022/10/31 07:01:43;;;;;;;10.77;4.30;;;8.80;71.10;;;;;;4979234;28;46485;-67
2022/10/31 07:04:12;;;;;;;8.40;4.32;;;8.80;71.30;;;;;;4964280;28;45915;-67
2022/10/31 07:06:38;;;;;;;14.07;4.30;;;8.90;71.30;;;;;;4979239;28;46367;-67
2022/10/31 07:09:04;;;;;;;9.32;3.60;;;9.00;71.80;;;;;;4980182;28;46381;-67
2022/10/31 07:11:30;;;;;;;11.73;4.30;;;9.00;70.50;;;;;;4978146;28;46487;-68
2022/10/31 07:13:56;;;;;;;10.20;3.70;;;9.00;71.50;;;;;;4960391;28;46496;-67
2022/10/31 07:16:22;;;;;;;8.50;4.70;;;9.10;71.20;;;;;;4946246;28;46387;-68
2022/10/31 07:18:48;;;;;;;13.07;4.17;;;9.10;71.00;;;;;;4979236;28;46660;-67
2022/10/31 07:21:14;;;;;;;11.63;4.00;;;9.30;70.50;;;;;;4979476;28;46413;-67
2022/10/31 07:23:40;;;;;;;9.30;4.37;;;9.40;71.20;;;;;;4961471;28;46502;-69
2022/10/31 07:26:05;;;;;;;11.27;5.00;;;9.50;70.80;;;;;;4963750;28;46460;-68
2022/10/31 07:28:31;;;;;;;13.63;4.70;;;9.70;70.80;;;;;;4978800;28;46566;-70
2022/10/31 07:30:57;;;;;;;11.03;4.90;;;9.80;69.10;;;;;;4981248;28;47367;-66
2022/10/31 07:33:27;;;;;;;16.23;5.03;;;10.00;69.00;;;;;;4963104;28;46774;-68
2022/10/31 07:35:53;;;;;;;13.53;5.37;;;10.10;68.70;;;;;;4961777;28;46433;-67
2022/10/31 07:38:19;;;;;;;7.87;4.40;;;10.30;68.40;;;;;;4980880;28;47755;-66
2022/10/31 07:40:51;;;;;;;10.73;5.13;;;10.50;67.20;;;;;;4977050;28;46472;-68
2022/10/31 07:43:19;;;;;;;13.77;6.40;;;10.50;68.10;;;;;;4963709;28;46427;-67
2022/10/31 07:45:49;;;;;;;14.93;5.50;;;10.70;68.10;;;;;;4987478;28;46292;-67
2022/10/31 07:48:19;;;;;;;13.03;4.97;;;10.80;68.00;;;;;;4961222;28;47292;-67
2022/10/31 07:50:46;;;;;;;10.60;6.00;;;11.10;67.00;;;;;;4987651;28;46023;-66
2022/10/31 07:53:13;;;;;;;11.07;5.70;;;11.20;67.90;;;;;;4976012;28;45892;-67
2022/10/31 07:55:39;;;;;;;21.60;5.90;;;11.30;67.70;;;;;;4986909;28;46352;-67
2022/10/31 07:58:11;;;;;;;13.67;5.60;;;11.50;66.60;;;;;;4963475;28;46241;-67
2022/10/31 08:00:38;;;;;;;14.43;6.33;;;11.80;66.40;;;;;;4962033;28;46462;-67
2022/10/31 08:03:15;;;;;;;11.10;5.10;;;11.90;67.50;;;;;;4977788;28;47000;-67
2022/10/31 08:05:41;;;;;;;10.00;5.23;;;12.10;67.40;;;;;;4962474;28;46572;-67
2022/10/31 08:08:08;;;;;;;14.73;5.63;;;12.30;67.30;;;;;;4962765;28;47791;-67
2022/10/31 08:10:34;;;;;;;11.70;4.23;;;12.50;65.80;;;;;;4960003;28;46436;-67
2022/10/31 08:13:06;;;;;;;12.90;5.00;;;12.60;66.90;;;;;;4980225;28;46505;-67
2022/10/31 08:15:33;;;;;;;15.13;4.83;;;12.80;67.00;;;;;;4962763;28;46473;-67
2022/10/31 08:18:00;;;;;;;10.80;4.90;;;13.00;67.20;;;;;;4961286;28;48138;-67
2022/10/31 08:20:26;;;;;;;13.47;4.57;;;13.10;66.20;;;;;;4963861;28;46337;-66
2022/10/31 08:22:59;;;;;;;10.17;4.43;;;13.20;67.30;;;;;;4976823;28;46509;-66
2022/10/31 08:25:26;;;;;;;19.47;4.70;;;13.30;67.00;;;;;;4979906;28;46532;-66
2022/10/31 08:27:52;;;;;;;15.27;5.40;;;13.40;67.10;;;;;;4981751;28;47561;-66
2022/10/31 08:30:23;;;;;;;13.13;6.60;;;13.60;65.80;;;;;;4964762;28;46595;-67
2022/10/31 08:33:00;;;;;;;18.90;7.77;;;13.60;66.80;;;;;;4968815;28;46330;-66
2022/10/31 08:35:25;;;;;;;16.33;5.70;;;13.80;66.70;;;;;;4984410;28;46452;-66
2022/10/31 08:37:58;;;;;;;11.93;5.77;;;14.00;66.70;;;;;;4968473;28;46578;-66
2022/10/31 08:40:25;;;;;;;17.13;5.00;;;14.10;65.40;;;;;;4965005;28;46369;-66
2022/10/31 08:43:02;;;;;;;17.20;5.33;;;14.20;66.40;;;;;;4983529;28;46426;-65
2022/10/31 08:45:29;;;;;;;16.27;5.03;;;14.20;66.40;;;;;;4981707;28;46364;-68
2022/10/31 08:47:59;;;;;;;14.40;4.63;;;14.40;66.50;;;;;;4964799;28;48265;-67
2022/10/31 08:50:25;;;;;;;13.00;4.77;;;14.50;65.40;;;;;;4962808;28;46236;-67
2022/10/31 08:52:51;;;;;;;12.83;5.40;;;14.50;66.40;;;;;;4966192;28;46353;-67
2022/10/31 08:55:16;;;;;;;12.00;4.40;;;14.70;66.50;;;;;;4980688;28;46396;-67
2022/10/31 08:57:42;;;;;;;15.10;4.90;;;14.80;66.40;;;;;;4965309;28;48301;-67
2022/10/31 09:00:08;;;;;;;13.90;5.70;;;15.00;65.00;;;;;;4963795;28;47023;-67
2022/10/31 09:02:34;;;;;;;11.17;5.23;;;15.10;66.00;;;;;;4983002;28;46470;-66
2022/10/31 09:05:00;;;;;;;17.50;4.90;;;15.20;65.80;;;;;;4982653;28;46733;-67
2022/10/31 09:07:26;;;;;;;10.37;3.60;;;15.20;66.00;;;;;;4959800;28;46560;-67
2022/10/31 09:09:51;;;;;;;13.33;4.40;;;15.30;65.20;;;;;;4983310;28;45805;-68
2022/10/31 09:12:17;;;;;;;19.83;6.00;;;15.30;66.10;;;;;;4981542;28;46502;-67
2022/10/31 09:14:42;;;;;;;11.50;4.90;;;15.40;66.00;;;;;;4980616;28;46606;-67
2022/10/31 09:17:08;;;;;;;13.23;5.07;;;15.50;65.80;;;;;;4984546;28;46793;-67
2022/10/31 09:19:35;;;;;;;11.83;5.23;;;15.80;64.20;;;;;;4982528;28;46675;-67
2022/10/31 09:22:01;;;;;;;19.80;5.10;;;15.80;65.30;;;;;;4983676;28;46463;-67
2022/10/31 09:24:27;;;;;;;13.57;4.97;;;16.00;65.00;;;;;;4965763;28;45890;-67
2022/10/31 09:26:52;;;;;;;17.57;5.03;;;16.10;63.40;;;;;;4981887;28;48205;-67
2022/10/31 09:29:18;;;;;;;22.30;6.07;;;16.50;62.70;;;;;;4964206;28;46590;-66
2022/10/31 09:31:43;;;;;;;14.37;6.00;;;16.50;63.70;;;;;;4981214;28;46488;-67
2022/10/31 09:34:09;;;;;;;15.83;8.10;;;16.80;63.30;;;;;;4984047;28;46621;-67
2022/10/31 09:36:36;;;;;;;15.10;7.90;;;16.90;62.60;;;;;;4983349;28;46453;-66
2022/10/31 09:39:02;;;;;;;21.63;7.57;;;16.90;62.40;;;;;;4983414;28;46452;-67
2022/10/31 09:42:01;;;;;;;22.57;8.17;;;17.10;61.00;;;;;;4966582;28;47354;-66
2022/10/31 09:45:12;;;;;;;27.70;8.80;;;17.30;61.80;;;;;;4981657;28;46677;-66
2022/10/31 09:48:13;;;;;;;17.30;10.20;;;17.30;61.80;;;;;;4940624;28;46576;-66
2022/10/31 09:50:54;;;;;;;26.37;9.93;;;17.40;60.70;;;;;;4940273;28;46517;-67
2022/10/31 09:53:23;;;;;;;25.87;10.83;;;17.40;61.80;;;;;;4965873;28;46418;-67
2022/10/31 09:55:50;;;;;;;21.40;10.70;;;17.50;61.90;;;;;;4964869;28;45923;-67
2022/10/31 09:58:23;;;;;;;21.43;10.87;;;17.50;61.70;;;;;;4964381;28;46597;-68
2022/10/31 10:00:48;;;;;;;25.70;12.03;;;17.60;61.20;;;;;;4964438;28;46529;-68
2022/10/31 10:03:35;;;;;;;23.77;12.23;;;17.60;61.20;;;;;;4981356;28;46502;-67
2022/10/31 10:06:27;;;;;;;23.23;11.97;;;17.60;61.20;;;;;;4980236;28;46522;-68
2022/10/31 10:08:53;;;;;;;53.03;19.63;;;17.60;61.20;;;;;;4980398;28;46510;-68
2022/10/31 10:11:43;;;;;;;27.63;12.40;;;17.70;60.00;;;;;;4963842;28;46465;-68
2022/10/31 10:14:20;;;;;;;29.83;12.97;;;17.80;60.90;;;;;;4967019;28;46489;-68
2022/10/31 10:17:04;;;;;;;26.27;11.77;;;17.90;61.00;;;;;;4962206;28;46349;-68
2022/10/31 10:20:07;;;;;;;23.40;11.10;;;18.00;59.90;;;;;;4962648;28;46899;-68
2022/10/31 10:22:47;;;;;;;23.13;12.63;;;18.00;60.50;;;;;;4979762;28;46386;-68
2022/10/31 10:25:21;;;;;;;18.63;10.90;;;18.20;61.40;;;;;;4982881;28;46899;-68
2022/10/31 10:28:09;;;;;;;23.50;11.13;;;18.20;60.10;;;;;;4965027;28;46550;-68
2022/10/31 10:31:10;;;;;;;32.33;11.90;;;18.30;58.30;;;;;;4979949;28;47296;-68
2022/10/31 10:33:41;;;;;;;21.23;10.80;;;18.40;59.50;;;;;;4930385;28;46470;-68
2022/10/31 10:36:14;;;;;;;25.77;11.23;;;18.50;59.50;;;;;;4956891;28;46421;-69
2022/10/31 10:38:51;;;;;;;27.30;10.10;;;18.70;59.70;;;;;;4981822;28;46334;-68
2022/10/31 10:41:23;;;;;;;18.00;9.33;;;18.70;57.90;;;;;;4964702;28;47760;-68
2022/10/31 10:43:50;;;;;;;22.23;10.30;;;18.70;59.30;;;;;;4981515;28;46442;-68
2022/10/31 10:49:19;;;;;;;26.60;10.17;;;18.70;59.00;;;;;;4980676;28;46372;-68
2022/10/31 10:52:07;;;;;;;30.47;10.33;;;18.70;59.10;;;;;;4982610;28;46428;-68
2022/10/31 10:55:01;;;;;;;21.17;11.27;;;18.70;58.90;;;;;;4965396;28;46489;-68
2022/10/31 10:58:00;;;;;;;20.87;9.90;;;18.70;58.70;;;;;;4964980;28;46380;-68
2022/10/31 11:00:32;;;;;;;19.80;9.20;;;18.90;56.90;;;;;;4964025;28;46434;-68
2022/10/31 11:02:57;;;;;;;20.43;9.00;;;18.90;57.50;;;;;;4981054;28;48852;-68
2022/10/31 11:05:23;;;;;;;31.37;10.80;;;19.00;57.50;;;;;;4963410;28;46422;-68
2022/10/31 11:07:49;;;;;;;20.57;9.53;;;19.10;57.30;;;;;;4963572;28;46355;-68
2022/10/31 11:10:15;;;;;;;24.23;9.73;;;19.20;55.50;;;;;;4963455;28;46442;-68
2022/10/31 11:12:43;;;;;;;20.93;10.53;;;19.20;56.50;;;;;;4963853;28;48241;-68
2022/10/31 11:15:20;;;;;;;29.10;10.37;;;19.40;55.90;;;;;;4967204;28;46367;-68
2022/10/31 11:17:50;;;;;;;25.77;9.17;;;19.40;55.20;;;;;;4964520;28;46329;-69
2022/10/31 11:20:15;;;;;;;26.00;9.97;;;19.40;55.30;;;;;;4963664;28;46604;-68
2022/10/31 11:22:47;;;;;;;25.87;10.07;;;19.50;55.20;;;;;;4965354;28;47105;-69
2022/10/31 11:25:26;;;;;;;28.77;9.90;;;19.60;54.10;;;;;;4965248;28;45907;-71
2022/10/31 11:28:05;;;;;;;23.10;9.83;;;19.70;53.60;;;;;;4967077;28;46442;-70
2022/10/31 11:30:42;;;;;;;24.07;9.70;;;19.80;52.40;;;;;;4962165;28;46594;-69
2022/10/31 11:33:36;;;;;;;29.33;9.70;;;19.80;53.30;;;;;;4960189;28;48985;-71
2022/10/31 11:36:24;;;;;;;18.63;9.03;;;19.90;52.90;;;;;;4978144;28;46473;-69
2022/10/31 11:38:51;;;;;;;23.13;9.00;;;20.00;52.80;;;;;;4957437;28;46384;-70
2022/10/31 11:41:24;;;;;;;31.80;10.63;;;20.00;51.10;;;;;;4978780;28;46681;-69
2022/10/31 11:43:54;;;;;;;19.00;9.07;;;20.00;52.40;;;;;;4977310;28;48498;-69
2022/10/31 11:46:42;;;;;;;27.03;10.60;;;20.10;51.90;;;;;;4964096;28;45963;-68
2022/10/31 11:49:19;;;;;;;15.27;8.03;;;20.20;50.50;;;;;;4945829;28;46958;-69
2022/10/31 11:51:49;;;;;;;18.70;9.77;;;20.20;51.50;;;;;;4960390;28;45977;-72
2022/10/31 11:54:41;;;;;;;24.70;10.70;;;20.20;51.70;;;;;;4961282;28;48056;-70
2022/10/31 11:57:27;;;;;;;22.63;10.17;;;20.10;51.80;;;;;;4977140;28;45785;-71
2022/10/31 11:59:55;;;;;;;24.40;10.07;;;19.90;51.20;;;;;;4962074;28;46552;-69
2022/10/31 12:02:22;;;;;;;37.57;10.37;;;19.80;52.30;;;;;;4963679;28;46792;-68
2022/10/31 12:04:59;;;;;;;22.87;11.30;;;19.80;52.70;;;;;;4978565;28;46451;-68
2022/10/31 12:07:24;;;;;;;22.17;10.60;;;19.80;53.00;;;;;;4981864;28;46406;-69
2022/10/31 12:09:50;;;;;;;23.63;10.70;;;19.70;51.90;;;;;;4979241;28;45892;-68
2022/10/31 12:12:35;;;;;;;23.03;10.37;;;19.60;53.00;;;;;;4964827;28;46389;-68
2022/10/31 12:15:29;;;;;;;21.83;10.20;;;19.70;53.20;;;;;;4982500;28;47353;-68
2022/10/31 12:18:07;;;;;;;21.80;10.27;;;19.60;53.20;;;;;;4959401;28;46804;-68
2022/10/31 12:20:38;;;;;;;25.30;10.03;;;19.50;52.60;;;;;;4966132;28;46500;-67
2022/10/31 12:23:27;;;;;;;20.90;10.33;;;19.60;53.70;;;;;;4966146;28;46859;-68
2022/10/31 12:26:03;;;;;;;26.60;10.10;;;19.60;53.60;;;;;;4964666;28;48840;-68
2022/10/31 12:28:52;;;;;;;20.27;9.87;;;19.60;53.70;;;;;;4981624;28;46505;-68
2022/10/31 12:31:48;;;;;;;31.23;11.43;;;19.50;52.70;;;;;;4972006;28;46435;-68
2022/10/31 12:34:44;;;;;;;27.63;10.90;;;19.50;54.10;;;;;;4964941;28;45920;-68
2022/10/31 12:37:13;;;;;;;32.87;10.57;;;19.40;54.50;;;;;;4976942;28;48929;-68
2022/10/31 12:39:57;;;;;;;28.87;10.30;;;19.20;53.90;;;;;;4966389;28;46500;-68
2022/10/31 12:42:44;;;;;;;23.07;10.67;;;19.20;55.00;;;;;;4968868;28;45867;-70
2022/10/31 12:45:34;;;;;;;23.60;10.90;;;19.10;55.00;;;;;;4967532;28;46049;-69
2022/10/31 12:48:15;;;;;;;16.63;9.93;;;18.90;55.20;;;;;;4964076;28;46503;-68
2022/10/31 12:50:58;;;;;;;22.60;9.70;;;18.80;54.60;;;;;;4982350;28;46480;-72
2022/10/31 12:53:30;;;;;;;22.13;9.87;;;18.80;55.80;;;;;;4962754;28;46453;-68
2022/10/31 12:56:20;;;;;;;20.10;9.87;;;18.80;56.00;;;;;;4981483;28;46464;-68
2022/10/31 12:59:15;;;;;;;25.20;10.77;;;18.80;56.10;;;;;;4965424;28;48006;-69
2022/10/31 13:01:50;;;;;;;25.60;11.43;;;18.70;55.20;;;;;;4980113;28;46587;-70
2022/10/31 13:04:29;;;;;;;28.73;11.13;;;18.60;56.60;;;;;;4980382;28;46108;-69
2022/10/31 13:07:02;;;;;;;29.33;12.20;;;18.60;56.60;;;;;;4965479;28;46330;-71
2022/10/31 13:09:55;;;;;;;27.57;11.30;;;18.50;56.40;;;;;;4976045;28;48900;-69